createdAt,value
2022-12-29T00:05:12.674Z,15.85
2022-12-29T00:12:14.653Z,17.30
2022-12-29T00:19:35.421Z,18.90
2022-12-29T00:26:55.951Z,14.95
2022-12-29T00:34:21.160Z,13.18
2022-12-29T00:41:42.068Z,15.48
2022-12-29T00:49:02.584Z,17.25
2022-12-29T00:56:04.750Z,14.38
2022-12-29T01:03:06.729Z,14.70
2022-12-29T01:10:11.770Z,15.90
2022-12-29T01:17:13.872Z,16.05
2022-12-29T01:24:17.661Z,13.82
2022-12-29T01:31:20.382Z,21.48
2022-12-29T01:38:22.495Z,19.60
2022-12-29T01:45:24.739Z,18.02
2022-12-29T01:52:29.080Z,16.00
2022-12-29T01:59:34.544Z,16.27
2022-12-29T02:06:42.826Z,14.68
2022-12-29T02:13:44.839Z,13.90
2022-12-29T02:21:16.063Z,11.63
2022-12-29T02:28:22.680Z,11.73
2022-12-29T02:35:32.088Z,13.45
2022-12-29T02:42:52.737Z,14.55
2022-12-29T02:50:04.992Z,12.88
2022-12-29T02:57:24.227Z,11.27
2022-12-29T03:04:53.504Z,21.03
2022-12-29T03:12:49.741Z,9.47
2022-12-29T03:19:53.074Z,9.75
2022-12-29T03:26:58.680Z,14.85
2022-12-29T03:34:01.156Z,8.75
2022-12-29T03:41:06.746Z,15.65
2022-12-29T03:48:09.524Z,15.75
2022-12-29T03:55:11.578Z,12.93
2022-12-29T04:02:13.789Z,10.30
2022-12-29T04:09:16.655Z,14.52
2022-12-29T04:16:19.794Z,5.30
2022-12-29T04:23:21.862Z,10.70
2022-12-29T04:30:23.924Z,15.40
2022-12-29T04:37:25.887Z,13.63
2022-12-29T04:44:27.855Z,15.27
2022-12-29T04:51:29.839Z,12.10
2022-12-29T04:58:31.910Z,12.07
2022-12-29T05:05:33.980Z,9.75
2022-12-29T05:12:37.748Z,15.65
2022-12-29T05:19:39.694Z,12.35
2022-12-29T05:26:41.749Z,11.20
2022-12-29T05:33:43.728Z,17.55
2022-12-29T05:40:45.866Z,11.68
2022-12-29T05:47:47.818Z,14.35
2022-12-29T05:54:49.899Z,13.90
2022-12-29T06:01:52.102Z,12.85
2022-12-29T06:08:54.522Z,12.85
2022-12-29T06:15:56.588Z,17.02
2022-12-29T06:22:58.630Z,11.70
2022-12-29T06:30:00.563Z,13.57
2022-12-29T06:37:02.955Z,14.25
2022-12-29T06:44:05.082Z,11.52
2022-12-29T06:51:07.174Z,14.73
2022-12-29T06:58:09.435Z,8.07
2022-12-29T07:05:11.553Z,15.32
2022-12-29T07:12:14.001Z,16.40
2022-12-29T07:19:16.259Z,15.95
2022-12-29T07:26:19.501Z,16.88
2022-12-29T07:33:21.601Z,14.90
2022-12-29T07:40:23.661Z,18.80
2022-12-29T07:47:25.634Z,19.00
2022-12-29T07:54:27.590Z,20.17
2022-12-29T08:01:29.778Z,17.92
2022-12-29T08:08:31.754Z,13.50
2022-12-29T08:15:33.701Z,17.45
2022-12-29T08:22:36.139Z,22.52
2022-12-29T08:29:38.452Z,12.50
2022-12-29T08:36:40.500Z,14.50
2022-12-29T08:43:42.517Z,17.67
2022-12-29T08:50:45.133Z,21.27
2022-12-29T08:57:47.166Z,22.13
2022-12-29T09:04:49.155Z,17.45
2022-12-29T09:11:51.173Z,19.92
2022-12-29T09:18:53.360Z,22.85
2022-12-29T09:25:55.830Z,13.25
2022-12-29T09:32:57.884Z,15.77
2022-12-29T09:39:59.884Z,16.13
2022-12-29T09:47:03.412Z,11.05
2022-12-29T09:54:24.836Z,15.38
2022-12-29T10:01:38.800Z,18.73
2022-12-29T10:08:50.967Z,11.88
2022-12-29T10:16:20.094Z,14.82
2022-12-29T10:23:28.448Z,13.50
2022-12-29T10:30:30.957Z,9.68
2022-12-29T10:37:58.470Z,10.05
2022-12-29T10:45:00.716Z,14.43
2022-12-29T10:52:04.636Z,11.43
2022-12-29T10:59:25.762Z,9.48
2022-12-29T11:06:30.453Z,4.10
2022-12-29T11:13:39.434Z,11.55
2022-12-29T11:20:45.686Z,10.60
2022-12-29T11:28:15.023Z,14.02
2022-12-29T11:35:33.634Z,11.80
2022-12-29T11:42:42.021Z,10.43
2022-12-29T11:49:51.475Z,17.42
2022-12-29T11:56:53.873Z,14.00
2022-12-29T12:04:05.784Z,13.10
2022-12-29T12:11:22.197Z,20.10
2022-12-29T12:18:44.599Z,14.32
2022-12-29T12:25:58.017Z,14.82
2022-12-29T12:33:20.483Z,16.75
2022-12-29T12:40:47.590Z,19.30
2022-12-29T12:48:02.896Z,17.98
2022-12-29T12:55:24.020Z,14.05
2022-12-29T13:02:32.163Z,18.27
2022-12-29T13:10:07.681Z,18.83
2022-12-29T13:17:46.532Z,16.65
2022-12-29T13:25:03.640Z,12.32
2022-12-29T13:32:24.484Z,9.63
2022-12-29T13:39:34.738Z,13.75
2022-12-29T13:46:40.802Z,12.90
2022-12-29T13:54:02.642Z,14.07
2022-12-29T14:01:04.623Z,15.57
2022-12-29T14:08:07.667Z,10.35
2022-12-29T14:15:12.706Z,18.90
2022-12-29T14:22:14.864Z,16.10
2022-12-29T14:29:37.919Z,15.65
2022-12-29T14:36:40.174Z,21.98
2022-12-29T14:43:42.229Z,18.75
2022-12-29T14:50:45.687Z,22.00
2022-12-29T14:57:59.351Z,16.30
2022-12-29T15:05:02.939Z,19.58
2022-12-29T15:12:23.137Z,21.45
2022-12-29T15:19:26.748Z,22.00
2022-12-29T15:26:40.778Z,35.35
2022-12-29T15:33:45.999Z,22.17
2022-12-29T15:40:48.274Z,25.90
2022-12-29T15:47:51.571Z,28.90
2022-12-29T15:54:54.726Z,30.05
2022-12-29T16:01:58.295Z,28.00
2022-12-29T16:09:13.911Z,22.15
2022-12-29T16:16:22.892Z,29.58
2022-12-29T16:23:27.453Z,24.23
2022-12-29T16:30:34.283Z,32.33
2022-12-29T16:37:40.517Z,26.90
2022-12-29T16:44:42.813Z,24.63
2022-12-29T16:51:44.859Z,37.00
2022-12-29T16:58:53.996Z,25.63
2022-12-29T17:05:57.783Z,19.38
2022-12-29T17:13:00.430Z,32.53
2022-12-29T17:20:06.668Z,29.27
2022-12-29T17:27:18.837Z,32.35
2022-12-29T17:34:21.069Z,42.88
2022-12-29T17:41:23.066Z,32.88
2022-12-29T17:48:25.587Z,44.45
2022-12-29T17:55:34.736Z,28.65
2022-12-29T18:02:39.403Z,19.23
2022-12-29T18:09:41.650Z,20.75
2022-12-29T18:16:44.374Z,34.47
2022-12-29T18:23:47.215Z,68.15
2022-12-29T18:30:49.368Z,55.47
2022-12-29T18:37:51.531Z,37.88
2022-12-29T18:44:53.635Z,15.90
2022-12-29T18:51:55.699Z,16.77
2022-12-29T18:58:57.859Z,16.40
2022-12-29T19:06:01.065Z,17.55
2022-12-29T19:13:03.461Z,23.10
2022-12-29T19:20:06.026Z,16.20
2022-12-29T19:27:08.220Z,21.50
2022-12-29T19:34:14.194Z,16.33
2022-12-29T19:41:16.930Z,20.67
2022-12-29T19:48:20.885Z,23.60
2022-12-29T19:55:23.088Z,19.25
2022-12-29T20:02:27.555Z,31.30
2022-12-29T20:09:29.998Z,23.00
2022-12-29T20:16:32.256Z,23.08
2022-12-29T20:23:35.483Z,22.08
2022-12-29T20:30:38.181Z,32.20
2022-12-29T20:37:40.271Z,24.95
2022-12-29T20:44:42.687Z,24.77
2022-12-29T20:59:27.044Z,20.90
2022-12-29T21:06:29.676Z,24.42
2022-12-29T21:13:32.384Z,19.95
2022-12-29T21:20:34.564Z,17.90
2022-12-29T21:27:36.747Z,22.65
2022-12-29T21:34:38.801Z,18.23
2022-12-29T21:41:40.884Z,22.90
2022-12-29T21:48:42.970Z,22.30
2022-12-29T21:55:45.064Z,20.38
2022-12-29T22:03:05.439Z,17.42
2022-12-29T22:10:26.477Z,31.02
2022-12-29T22:17:29.692Z,23.80
2022-12-29T22:24:32.989Z,24.77
2022-12-29T22:31:35.191Z,19.85
2022-12-29T22:38:37.234Z,20.75
2022-12-29T22:45:39.851Z,18.40
2022-12-29T22:52:41.793Z,21.35
2022-12-29T22:59:43.918Z,24.90
2022-12-29T23:06:46.025Z,17.75
2022-12-29T23:13:48.198Z,16.42
2022-12-29T23:20:50.433Z,20.33
2022-12-29T23:27:52.495Z,16.25
2022-12-29T23:34:54.566Z,17.80
2022-12-29T23:41:57.495Z,17.38
2022-12-29T23:48:59.485Z,22.08
2022-12-29T23:56:01.821Z,17.08
